createdAt,value
2024-04-19T00:01:03.250Z,21.00
2024-04-19T00:03:34.155Z,26.65
2024-04-19T00:06:07.492Z,22.77
2024-04-19T00:08:40.891Z,22.58
2024-04-19T00:11:11.515Z,20.67
2024-04-19T00:13:41.863Z,22.33
2024-04-19T00:16:13.024Z,20.92
2024-04-19T00:18:43.996Z,22.90
2024-04-19T00:21:14.619Z,18.05
2024-04-19T00:23:45.516Z,20.95
2024-04-19T00:26:18.621Z,31.98
2024-04-19T00:28:48.839Z,23.63
2024-04-19T00:31:20.018Z,19.92
2024-04-19T00:33:52.871Z,21.88
2024-04-19T00:36:23.282Z,17.02
2024-04-19T00:38:55.378Z,18.50
2024-04-19T00:41:25.687Z,24.05
2024-04-19T00:43:58.866Z,20.52
2024-04-19T00:46:30.624Z,24.10
2024-04-19T00:49:02.298Z,23.10
2024-04-19T00:51:35.301Z,22.08
2024-04-19T00:54:10.405Z,24.50
2024-04-19T00:56:40.939Z,20.45
2024-04-19T00:59:12.970Z,18.88
2024-04-19T01:01:43.224Z,23.00
2024-04-19T01:04:13.507Z,19.65
2024-04-19T01:06:43.729Z,19.83
2024-04-19T01:09:16.956Z,30.50
2024-04-19T01:11:51.181Z,21.50
2024-04-19T01:14:21.367Z,18.85
2024-04-19T01:16:51.545Z,23.60
2024-04-19T01:19:21.745Z,30.63
2024-04-19T01:21:52.063Z,20.42
2024-04-19T01:24:38.327Z,23.27
2024-04-19T01:27:14.316Z,16.55
2024-04-19T01:29:48.195Z,19.50
2024-04-19T01:32:18.552Z,20.10
2024-04-19T01:34:49.720Z,18.92
2024-04-19T01:37:20.736Z,33.90
2024-04-19T01:39:52.202Z,35.03
2024-04-19T01:42:25.895Z,18.90
2024-04-19T01:45:05.442Z,20.05
2024-04-19T01:47:35.716Z,20.73
2024-04-19T01:50:06.556Z,20.00
2024-04-19T01:52:37.280Z,18.08
2024-04-19T01:55:08.021Z,17.77
2024-04-19T01:57:38.679Z,17.35
2024-04-19T02:00:09.845Z,17.65
2024-04-19T02:02:46.196Z,16.15
2024-04-19T02:05:16.482Z,16.63
2024-04-19T02:07:46.500Z,19.23
2024-04-19T02:10:17.459Z,21.00
2024-04-19T02:12:48.481Z,20.08
2024-04-19T02:15:21.752Z,15.43
2024-04-19T02:17:52.902Z,24.42
2024-04-19T02:20:23.732Z,21.92
2024-04-19T02:22:53.966Z,19.23
2024-04-19T02:25:24.262Z,25.55
2024-04-19T02:28:13.005Z,20.58
2024-04-19T02:30:57.375Z,20.73
2024-04-19T02:33:29.296Z,25.17
2024-04-19T02:35:59.630Z,18.85
2024-04-19T02:38:31.391Z,22.88
2024-04-19T02:41:04.241Z,23.85
2024-04-19T02:43:35.348Z,16.98
2024-04-19T02:46:07.220Z,25.58
2024-04-19T02:48:37.886Z,19.25
2024-04-19T02:51:08.176Z,21.67
2024-04-19T02:53:38.385Z,24.42
2024-04-19T02:56:10.043Z,15.35
2024-04-19T02:58:42.384Z,24.02
2024-04-19T03:01:12.961Z,31.08
2024-04-19T03:03:44.276Z,26.90
2024-04-19T03:06:14.659Z,19.63
2024-04-19T03:08:45.324Z,18.83
2024-04-19T03:11:16.423Z,18.13
2024-04-19T03:13:51.725Z,16.70
2024-04-19T03:16:22.170Z,17.75
2024-04-19T03:18:55.243Z,21.58
2024-04-19T03:21:25.680Z,20.98
2024-04-19T03:23:55.990Z,18.40
2024-04-19T03:26:27.591Z,23.38
2024-04-19T03:28:58.270Z,23.92
2024-04-19T03:31:29.242Z,24.48
2024-04-19T03:34:07.284Z,21.20
2024-04-19T03:36:38.128Z,23.90
2024-04-19T03:39:11.361Z,22.23
2024-04-19T03:41:44.918Z,30.05
2024-04-19T03:44:33.817Z,22.88
2024-04-19T03:47:04.543Z,45.35
2024-04-19T03:49:35.205Z,28.70
2024-04-19T03:52:07.959Z,23.58
2024-04-19T03:54:39.460Z,18.00
2024-04-19T03:57:12.538Z,23.10
2024-04-19T03:59:45.289Z,22.77
2024-04-19T04:02:20.867Z,23.23
2024-04-19T04:05:01.323Z,26.48
2024-04-19T04:07:33.500Z,19.73
2024-04-19T04:10:05.865Z,19.08
2024-04-19T04:12:36.939Z,22.67
2024-04-19T04:15:07.722Z,18.50
2024-04-19T04:17:39.226Z,9.93
2024-04-19T04:20:10.402Z,14.45
2024-04-19T04:22:45.403Z,15.35
2024-04-19T04:25:19.688Z,22.92
2024-04-19T04:27:51.797Z,10.50
2024-04-19T04:30:22.607Z,13.93
2024-04-19T04:32:53.434Z,11.40
2024-04-19T04:35:23.826Z,10.65
2024-04-19T04:37:54.375Z,14.73
2024-04-19T04:40:24.583Z,11.00
2024-04-19T04:42:54.878Z,14.48
2024-04-19T04:45:25.785Z,10.45
2024-04-19T04:47:56.059Z,13.52
2024-04-19T04:50:26.500Z,20.90
2024-04-19T04:52:59.591Z,17.15
2024-04-19T04:55:33.462Z,11.90
2024-04-19T04:58:06.247Z,16.90
2024-04-19T05:00:37.377Z,10.25
2024-04-19T05:03:10.577Z,14.60
2024-04-19T05:05:41.381Z,18.45
2024-04-19T05:08:11.631Z,18.35
2024-04-19T05:10:42.104Z,31.63
2024-04-19T05:13:12.327Z,26.75
2024-04-19T05:15:44.345Z,37.60
2024-04-19T05:18:15.056Z,39.08
2024-04-19T05:20:47.510Z,26.23
2024-04-19T05:23:17.977Z,27.95
2024-04-19T05:25:50.953Z,24.05
2024-04-19T05:28:25.999Z,23.23
2024-04-19T05:30:56.627Z,26.85
2024-04-19T05:33:31.162Z,17.45
2024-04-19T05:36:01.725Z,35.50
2024-04-19T05:38:31.927Z,14.43
2024-04-19T05:41:02.555Z,17.85
2024-04-19T05:43:32.847Z,13.73
2024-04-19T05:46:03.420Z,18.08
2024-04-19T05:48:36.462Z,19.67
2024-04-19T05:51:07.224Z,13.85
2024-04-19T05:53:37.705Z,14.00
2024-04-19T05:56:08.347Z,13.77
2024-04-19T05:58:38.573Z,17.95
2024-04-19T06:01:10.171Z,14.27
2024-04-19T06:03:41.104Z,8.38
2024-04-19T06:06:13.236Z,9.02
2024-04-19T06:08:46.808Z,9.93
2024-04-19T06:11:17.011Z,11.00
2024-04-19T06:13:49.393Z,23.55
2024-04-19T06:16:19.851Z,25.77
2024-04-19T06:18:50.300Z,17.70
2024-04-19T06:21:20.597Z,19.63
2024-04-19T06:23:51.657Z,28.95
2024-04-19T06:26:21.866Z,20.83
2024-04-19T06:28:53.578Z,26.35
2024-04-19T06:31:25.373Z,19.30
2024-04-19T06:33:56.090Z,18.63
2024-04-19T06:36:28.393Z,43.55
2024-04-19T06:39:00.041Z,52.08
2024-04-19T06:41:32.579Z,36.15
2024-04-19T06:44:02.906Z,43.28
2024-04-19T06:46:34.324Z,31.52
2024-04-19T06:49:05.048Z,23.55
2024-04-19T06:51:37.856Z,25.90
2024-04-19T06:54:09.084Z,17.30
2024-04-19T06:56:41.013Z,60.92
2024-04-19T06:59:11.742Z,28.58
2024-04-19T07:01:42.407Z,25.88
2024-04-19T07:04:14.761Z,20.55
2024-04-19T07:06:46.549Z,20.33
2024-04-19T07:09:18.651Z,21.85
2024-04-19T07:11:49.296Z,19.33
2024-04-19T07:14:19.889Z,27.20
2024-04-19T07:16:49.934Z,13.10
2024-04-19T07:19:20.533Z,20.40
2024-04-19T07:21:51.038Z,32.42
2024-04-19T07:24:21.451Z,16.92
2024-04-19T07:26:52.965Z,16.75
2024-04-19T07:29:23.160Z,28.10
2024-04-19T07:31:53.467Z,24.38
2024-04-19T07:34:23.712Z,24.70
2024-04-19T07:36:54.703Z,34.03
2024-04-19T07:39:25.427Z,19.73
2024-04-19T07:41:57.245Z,15.48
2024-04-19T07:44:27.500Z,15.15
2024-04-19T07:47:00.761Z,21.58
2024-04-19T07:49:32.143Z,22.77
2024-04-19T07:52:02.658Z,28.48
2024-04-19T07:54:32.864Z,21.02
2024-04-19T07:57:03.691Z,22.35
2024-04-19T07:59:36.288Z,23.95
2024-04-19T08:02:08.921Z,18.98
2024-04-19T08:04:39.275Z,26.98
2024-04-19T08:07:14.768Z,15.57
2024-04-19T08:09:55.332Z,16.05
2024-04-19T08:12:26.011Z,23.02
2024-04-19T08:14:57.002Z,18.15
2024-04-19T08:17:27.283Z,23.67
2024-04-19T08:19:58.243Z,30.02
2024-04-19T08:22:28.487Z,23.15
2024-04-19T08:25:03.786Z,22.95
2024-04-19T08:27:34.056Z,19.85
2024-04-19T08:30:04.929Z,14.75
2024-04-19T08:32:35.329Z,18.65
2024-04-19T08:35:07.962Z,26.23
2024-04-19T08:37:38.227Z,23.35
2024-04-19T08:40:09.107Z,14.77
2024-04-19T08:42:43.654Z,14.75
2024-04-19T08:45:17.815Z,16.50
2024-04-19T08:47:49.007Z,13.73
2024-04-19T08:50:21.058Z,17.40
2024-04-19T08:53:09.828Z,16.05
2024-04-19T08:55:43.375Z,17.73
2024-04-19T08:58:14.386Z,14.50
2024-04-19T09:00:44.927Z,13.32
2024-04-19T09:03:21.112Z,12.27
2024-04-19T09:05:51.763Z,15.35
2024-04-19T09:08:24.458Z,15.30
2024-04-19T09:10:55.028Z,18.98
2024-04-19T09:13:25.849Z,12.45
2024-04-19T09:15:57.810Z,25.33
2024-04-19T09:18:30.087Z,15.93
2024-04-19T09:21:00.637Z,17.15
2024-04-19T09:23:31.384Z,15.32
2024-04-19T09:26:05.031Z,14.40
2024-04-19T09:28:35.631Z,12.95
2024-04-19T09:31:07.599Z,15.45
2024-04-19T09:33:40.435Z,13.85
2024-04-19T09:36:11.755Z,18.00
2024-04-19T09:38:43.805Z,21.48
2024-04-19T09:41:18.436Z,21.77
2024-04-19T09:43:51.271Z,17.80
2024-04-19T09:46:44.527Z,15.10
2024-04-19T09:49:23.205Z,12.52
2024-04-19T09:51:54.108Z,20.83
2024-04-19T09:54:31.936Z,15.52
2024-04-19T09:57:05.832Z,15.25
2024-04-19T09:59:37.917Z,12.77
2024-04-19T10:02:14.306Z,13.88
2024-04-19T10:04:51.831Z,17.95
2024-04-19T10:07:23.801Z,15.20
2024-04-19T10:09:56.846Z,23.23
2024-04-19T10:12:27.794Z,16.73
2024-04-19T10:14:58.734Z,19.42
2024-04-19T10:17:30.543Z,19.15
2024-04-19T10:20:01.694Z,21.05
2024-04-19T10:22:33.255Z,16.52
2024-04-19T10:25:04.995Z,16.40
2024-04-19T10:27:38.707Z,20.30
2024-04-19T10:30:18.539Z,16.70
2024-04-19T10:32:57.294Z,21.85
2024-04-19T10:35:28.778Z,17.83
2024-04-19T10:38:01.587Z,16.63
2024-04-19T10:40:33.407Z,16.88
2024-04-19T10:43:08.707Z,16.02
2024-04-19T10:45:40.275Z,11.55
2024-04-19T10:48:12.266Z,16.08
2024-04-19T10:50:46.378Z,16.88
2024-04-19T10:53:19.693Z,17.48
2024-04-19T10:55:50.200Z,13.10
2024-04-19T10:58:20.716Z,26.33
2024-04-19T11:00:51.327Z,15.98
2024-04-19T11:03:22.379Z,15.27
2024-04-19T11:05:53.953Z,16.05
2024-04-19T11:08:27.006Z,13.75
2024-04-19T11:10:59.679Z,14.98
2024-04-19T11:13:30.332Z,22.33
2024-04-19T11:16:01.200Z,18.55
2024-04-19T11:18:32.799Z,19.92
2024-04-19T11:21:08.523Z,18.77
2024-04-19T11:23:43.045Z,16.30
2024-04-19T11:26:19.850Z,22.10
2024-04-19T11:28:50.651Z,24.25
2024-04-19T11:31:22.886Z,20.30
2024-04-19T11:33:57.352Z,17.48
2024-04-19T11:36:31.386Z,17.73
2024-04-19T11:39:02.008Z,18.85
2024-04-19T11:41:33.401Z,20.92
2024-04-19T11:44:04.982Z,19.02
2024-04-19T11:46:35.663Z,19.48
2024-04-19T11:49:06.794Z,17.50
2024-04-19T11:51:37.782Z,14.77
2024-04-19T11:54:08.961Z,18.35
2024-04-19T11:56:42.414Z,17.70
2024-04-19T11:59:26.972Z,27.00
2024-04-19T12:01:58.381Z,26.73
2024-04-19T12:04:28.949Z,23.88
2024-04-19T12:06:59.873Z,19.48
2024-04-19T12:09:30.571Z,17.98
2024-04-19T12:15:23.386Z,20.50
2024-04-19T12:17:29.744Z,21.50
2024-04-19T12:20:07.972Z,18.63
2024-04-19T12:22:54.670Z,15.95
2024-04-19T12:25:31.131Z,13.48
2024-04-19T12:28:03.522Z,20.77
2024-04-19T12:30:34.606Z,14.43
2024-04-19T12:33:05.479Z,18.42
2024-04-19T12:35:37.625Z,18.92
2024-04-19T12:38:08.542Z,21.08
2024-04-19T12:40:41.939Z,20.27
2024-04-19T12:43:17.166Z,23.13
2024-04-19T12:45:52.354Z,24.38
2024-04-19T12:48:23.385Z,18.23
2024-04-19T12:50:53.720Z,24.20
2024-04-19T12:53:24.493Z,16.70
2024-04-19T12:55:55.172Z,17.65
2024-04-19T12:58:25.580Z,24.30
2024-04-19T13:01:05.722Z,18.20
2024-04-19T13:03:36.701Z,20.63
2024-04-19T13:06:08.834Z,26.83
2024-04-19T13:08:39.610Z,16.58
2024-04-19T13:11:10.167Z,18.30
2024-04-19T13:13:59.234Z,13.35
2024-04-19T13:16:31.980Z,16.70
2024-04-19T13:19:02.811Z,16.38
2024-04-19T13:21:34.882Z,14.20
2024-04-19T13:24:05.800Z,13.57
2024-04-19T13:26:37.216Z,13.68
2024-04-19T13:29:07.879Z,14.32
2024-04-19T13:31:38.460Z,13.45
2024-04-19T13:34:09.376Z,18.40
2024-04-19T13:36:45.533Z,21.38
2024-04-19T13:39:17.342Z,14.40
2024-04-19T13:41:47.950Z,16.63
2024-04-19T13:44:18.975Z,15.27
2024-04-19T13:46:49.793Z,12.95
2024-04-19T13:49:20.338Z,19.02
2024-04-19T13:51:50.879Z,12.93
2024-04-19T13:54:22.102Z,12.70
2024-04-19T13:56:52.684Z,11.55
2024-04-19T13:59:23.906Z,13.65
2024-04-19T14:01:55.366Z,12.43
2024-04-19T14:04:26.492Z,12.52
2024-04-19T14:06:59.975Z,14.52
2024-04-19T14:09:34.537Z,12.02
2024-04-19T14:12:10.677Z,11.38
2024-04-19T14:14:43.344Z,15.35
2024-04-19T14:17:13.643Z,12.45
2024-04-19T14:19:44.658Z,17.60
2024-04-19T14:22:17.651Z,14.98
2024-04-19T14:24:49.889Z,12.10
2024-04-19T14:27:20.621Z,10.90
2024-04-19T14:29:51.380Z,15.88
2024-04-19T14:32:21.763Z,14.30
2024-04-19T14:34:52.017Z,11.23
2024-04-19T14:37:25.381Z,17.13
2024-04-19T14:39:56.753Z,9.73
2024-04-19T14:42:28.390Z,13.82
2024-04-19T14:44:59.111Z,12.80
2024-04-19T14:47:29.416Z,13.32
2024-04-19T14:49:59.832Z,12.95
2024-04-19T14:52:31.259Z,10.65
2024-04-19T14:55:02.296Z,11.75
2024-04-19T14:57:32.546Z,12.13
2024-04-19T15:00:02.456Z,15.73
2024-04-19T15:02:34.400Z,14.43
2024-04-19T15:05:05.269Z,18.08
2024-04-19T15:07:39.591Z,13.25
2024-04-19T15:10:11.009Z,14.90
2024-04-19T15:12:41.246Z,16.70
2024-04-19T15:15:13.673Z,13.18
2024-04-19T15:17:45.184Z,15.43
2024-04-19T15:20:17.531Z,16.65
2024-04-19T15:22:47.781Z,22.40
2024-04-19T15:25:18.310Z,16.38
2024-04-19T15:27:48.634Z,12.90
2024-04-19T15:30:22.426Z,12.43
2024-04-19T15:32:56.163Z,16.83
2024-04-19T15:35:29.911Z,16.27
2024-04-19T15:38:00.904Z,17.35
2024-04-19T15:40:31.209Z,19.13
2024-04-19T15:43:02.314Z,19.83
2024-04-19T15:45:35.281Z,12.55
2024-04-19T15:48:05.704Z,14.25
2024-04-19T15:50:40.020Z,16.77
2024-04-19T15:53:11.025Z,15.80
2024-04-19T15:55:45.007Z,16.38
2024-04-19T15:58:15.945Z,12.13
2024-04-19T16:00:46.397Z,16.83
2024-04-19T16:03:17.971Z,17.05
2024-04-19T16:05:48.352Z,13.43
2024-04-19T16:08:20.784Z,15.43
2024-04-19T16:10:51.628Z,12.45
2024-04-19T16:13:22.004Z,14.80
2024-04-19T16:16:11.380Z,17.50
2024-04-19T16:18:43.079Z,12.75
2024-04-19T16:21:14.431Z,13.63
2024-04-19T16:23:46.239Z,16.58
2024-04-19T16:26:17.243Z,10.68
2024-04-19T16:28:47.505Z,20.95
2024-04-19T16:31:18.212Z,18.30
2024-04-19T16:33:48.700Z,13.98
2024-04-19T16:36:18.925Z,14.43
2024-04-19T16:38:49.058Z,14.82
2024-04-19T16:41:22.567Z,17.73
2024-04-19T16:43:53.099Z,16.75
2024-04-19T16:46:23.258Z,20.50
2024-04-19T16:48:53.430Z,21.40
2024-04-19T16:51:24.628Z,22.75
2024-04-19T16:53:56.047Z,22.90
2024-04-19T16:56:26.293Z,21.70
2024-04-19T16:58:56.389Z,25.45
2024-04-19T17:01:26.694Z,17.42
2024-04-19T17:03:57.190Z,20.80
2024-04-19T17:06:27.341Z,18.17
2024-04-19T17:08:57.565Z,23.27
2024-04-19T17:11:27.639Z,22.08
2024-04-19T17:13:57.470Z,28.85
2024-04-19T17:16:27.709Z,24.48
2024-04-19T17:18:58.599Z,20.70
2024-04-19T17:21:29.129Z,19.00
2024-04-19T17:23:59.356Z,18.40
2024-04-19T17:26:30.616Z,24.80
2024-04-19T17:29:01.694Z,17.58
2024-04-19T17:31:31.762Z,22.83
2024-04-19T17:34:04.592Z,23.65
2024-04-19T17:36:35.006Z,19.63
2024-04-19T17:39:05.632Z,17.42
2024-04-19T17:41:38.674Z,19.65
2024-04-19T17:44:08.773Z,17.88
2024-04-19T17:46:42.391Z,18.65
2024-04-19T17:49:12.476Z,18.77
2024-04-19T17:51:43.399Z,14.90
2024-04-19T17:54:20.691Z,14.13
2024-04-19T17:56:50.808Z,14.32
2024-04-19T17:59:20.884Z,19.60
2024-04-19T18:01:51.120Z,15.40
2024-04-19T18:04:28.674Z,18.33
2024-04-19T18:07:07.073Z,16.35
2024-04-19T18:09:53.250Z,16.95
2024-04-19T18:12:40.800Z,17.50
2024-04-19T18:15:14.517Z,13.57
2024-04-19T18:17:51.215Z,12.27
2024-04-19T18:20:36.258Z,17.42
2024-04-19T18:23:20.013Z,14.85
2024-04-19T18:25:55.488Z,14.85
2024-04-19T18:28:37.764Z,16.70
2024-04-19T18:31:15.521Z,11.48
2024-04-19T18:33:50.118Z,10.63
2024-04-19T18:36:29.471Z,8.32
2024-04-19T18:39:12.460Z,8.30
2024-04-19T18:41:47.591Z,8.20
2024-04-19T18:44:28.564Z,8.88
2024-04-19T18:47:07.554Z,8.27
2024-04-19T18:49:48.914Z,8.00
2024-04-19T18:52:24.520Z,10.05
2024-04-19T18:55:02.558Z,7.28
2024-04-19T18:57:42.094Z,12.27
2024-04-19T19:00:17.563Z,9.93
2024-04-19T19:02:56.572Z,10.10
2024-04-19T19:05:33.035Z,10.75
2024-04-19T19:08:12.372Z,8.07
2024-04-19T19:10:46.296Z,6.40
2024-04-19T19:13:19.071Z,10.13
2024-04-19T19:16:02.962Z,10.13
2024-04-19T19:18:41.677Z,7.53
2024-04-19T19:21:18.571Z,8.00
2024-04-19T19:23:57.656Z,6.72
2024-04-19T19:26:30.797Z,8.80
2024-04-19T19:29:09.166Z,7.55
2024-04-19T19:31:43.203Z,8.10
2024-04-19T19:34:15.749Z,8.20
2024-04-19T19:36:55.588Z,5.93
2024-04-19T19:39:32.479Z,7.32
2024-04-19T19:42:06.133Z,8.05
2024-04-19T19:44:39.285Z,10.40
2024-04-19T19:47:12.240Z,9.30
2024-04-19T19:49:47.612Z,7.85
2024-04-19T19:52:26.696Z,8.18
2024-04-19T19:55:00.660Z,8.20
2024-04-19T19:57:33.020Z,7.05
2024-04-19T20:00:24.502Z,8.35
2024-04-19T20:03:29.232Z,8.02
2024-04-19T20:06:04.992Z,8.32
2024-04-19T20:08:39.633Z,7.85
2024-04-19T20:11:12.877Z,9.35
2024-04-19T20:13:45.530Z,7.80
2024-04-19T20:16:21.765Z,8.95
2024-04-19T20:18:54.507Z,8.07
2024-04-19T20:21:27.515Z,10.02
2024-04-19T20:24:05.909Z,7.45
2024-04-19T20:26:43.532Z,8.18
2024-04-19T20:29:20.088Z,7.57
2024-04-19T20:31:59.180Z,8.00
2024-04-19T20:34:34.802Z,8.00
2024-04-19T20:37:09.833Z,9.00
2024-04-19T20:39:42.761Z,8.52
2024-04-19T20:42:20.625Z,9.68
2024-04-19T20:44:57.560Z,11.77
2024-04-19T20:47:34.448Z,11.55
2024-04-19T20:50:16.200Z,10.48
2024-04-19T20:52:50.813Z,13.63
2024-04-19T20:55:27.345Z,10.27
2024-04-19T20:58:00.232Z,8.95
2024-04-19T21:00:42.070Z,9.43
2024-04-19T21:03:15.082Z,10.55
2024-04-19T21:05:51.682Z,10.20
2024-04-19T21:08:24.286Z,10.23
2024-04-19T21:10:56.435Z,12.32
2024-04-19T21:13:32.207Z,10.90
2024-04-19T21:16:13.907Z,10.93
2024-04-19T21:18:48.934Z,11.65
2024-04-19T21:21:23.598Z,10.90
2024-04-19T21:23:59.842Z,12.32
2024-04-19T21:26:35.427Z,16.65
2024-04-19T21:29:07.842Z,9.52
2024-04-19T21:31:40.940Z,10.50
2024-04-19T21:34:13.396Z,13.73
2024-04-19T21:36:48.747Z,12.32
2024-04-19T21:39:22.443Z,14.63
2024-04-19T21:41:58.242Z,15.52
2024-04-19T21:44:36.781Z,13.32
2024-04-19T21:47:11.606Z,17.42
2024-04-19T21:49:45.329Z,15.48
2024-04-19T21:52:20.537Z,18.70
2024-04-19T21:54:55.304Z,18.60
2024-04-19T21:57:37.285Z,19.70
2024-04-19T22:00:10.207Z,20.00
2024-04-19T22:02:42.680Z,27.08
2024-04-19T22:05:16.658Z,27.98
2024-04-19T22:07:49.277Z,23.73
2024-04-19T22:10:25.100Z,25.55
2024-04-19T22:13:14.396Z,22.38
2024-04-19T22:15:53.150Z,23.15
2024-04-19T22:18:25.927Z,20.17
2024-04-19T22:21:12.480Z,23.60
2024-04-19T22:23:45.045Z,20.50
2024-04-19T22:26:18.965Z,19.40
2024-04-19T22:28:53.286Z,19.90
2024-04-19T22:31:28.994Z,21.73
2024-04-19T22:34:08.096Z,21.35
2024-04-19T22:36:44.078Z,19.15
2024-04-19T22:39:17.313Z,18.70
2024-04-19T22:41:49.802Z,16.92
2024-04-19T22:44:22.264Z,17.25
2024-04-19T22:46:54.883Z,16.95
2024-04-19T22:49:27.550Z,17.20
2024-04-19T22:52:09.374Z,11.50
2024-04-19T22:54:45.558Z,15.80
2024-04-19T22:57:18.193Z,19.20
2024-04-19T22:59:51.347Z,14.68
2024-04-19T23:02:23.998Z,11.65
2024-04-19T23:05:00.678Z,16.20
2024-04-19T23:07:37.031Z,17.83
2024-04-19T23:10:12.967Z,13.70
2024-04-19T23:12:52.189Z,13.43
2024-04-19T23:15:31.338Z,11.40
2024-04-19T23:18:08.599Z,12.07
2024-04-19T23:20:41.630Z,14.38
2024-04-19T23:23:17.231Z,13.05
2024-04-19T23:26:08.471Z,15.73
2024-04-19T23:28:42.273Z,11.57
2024-04-19T23:31:19.880Z,10.27
2024-04-19T23:33:53.062Z,12.20
2024-04-19T23:36:25.899Z,24.17
2024-04-19T23:39:00.213Z,17.80
2024-04-19T23:41:33.351Z,12.00
2024-04-19T23:44:07.076Z,33.80
2024-04-19T23:46:39.974Z,13.77
2024-04-19T23:52:03.521Z,18.33
2024-04-19T23:54:39.729Z,34.13
2024-04-19T23:57:13.942Z,30.20
2024-04-19T23:59:50.648Z,12.82
